sensor_id;sensor_type;location;lat;lon;timestamp;pressure;altitude;pressure_sealevel;temperature;humidity
41044;BME280;51680;49.806;18.774;2023-12-07T00:01:50;97195.31;;;0.45;78.70
41044;BME280;51680;49.806;18.774;2023-12-07T00:04:52;97191.84;;;0.46;78.32
41044;BME280;51680;49.806;18.774;2023-12-07T00:07:55;97196.03;;;0.50;78.34
41044;BME280;51680;49.806;18.774;2023-12-07T00:10:57;97206.28;;;0.50;78.14
41044;BME280;51680;49.806;18.774;2023-12-07T00:14:00;97187.44;;;0.51;78.21
41044;BME280;51680;49.806;18.774;2023-12-07T00:17:03;97187.38;;;0.54;78.29
41044;BME280;51680;49.806;18.774;2023-12-07T00:20:06;97195.06;;;0.54;78.35
41044;BME280;51680;49.806;18.774;2023-12-07T00:23:09;97204.44;;;0.55;78.13
41044;BME280;51680;49.806;18.774;2023-12-07T00:26:29;97210.38;;;0.57;78.43
41044;BME280;51680;49.806;18.774;2023-12-07T00:29:31;97212.84;;;0.60;78.24
41044;BME280;51680;49.806;18.774;2023-12-07T00:32:33;97200.88;;;0.61;78.04
41044;BME280;51680;49.806;18.774;2023-12-07T00:35:35;97203.44;;;0.61;77.98
41044;BME280;51680;49.806;18.774;2023-12-07T00:38:38;97205.09;;;0.63;78.16
41044;BME280;51680;49.806;18.774;2023-12-07T00:41:41;97206.03;;;0.59;78.13
41044;BME280;51680;49.806;18.774;2023-12-07T00:44:43;97201.69;;;0.61;78.19
41044;BME280;51680;49.806;18.774;2023-12-07T00:47:45;97209.31;;;0.64;77.93
41044;BME280;51680;49.806;18.774;2023-12-07T00:50:47;97210.09;;;0.66;77.83
41044;BME280;51680;49.806;18.774;2023-12-07T00:53:50;97206.50;;;0.73;77.73
41044;BME280;51680;49.806;18.774;2023-12-07T00:56:52;97215.94;;;0.71;77.43
41044;BME280;51680;49.806;18.774;2023-12-07T00:59:54;97215.91;;;0.73;77.73
41044;BME280;51680;49.806;18.774;2023-12-07T01:02:56;97218.75;;;0.63;77.69
41044;BME280;51680;49.806;18.774;2023-12-07T01:05:58;97214.69;;;0.57;78.03
41044;BME280;51680;49.806;18.774;2023-12-07T01:09:01;97213.06;;;0.52;78.00
41044;BME280;51680;49.806;18.774;2023-12-07T01:12:04;97215.00;;;0.44;78.00
41044;BME280;51680;49.806;18.774;2023-12-07T01:15:07;97217.66;;;0.42;78.26
41044;BME280;51680;49.806;18.774;2023-12-07T01:18:09;97218.03;;;0.28;78.50
41044;BME280;51680;49.806;18.774;2023-12-07T01:21:11;97217.06;;;0.32;78.62
41044;BME280;51680;49.806;18.774;2023-12-07T01:24:14;97219.34;;;0.43;78.52
41044;BME280;51680;49.806;18.774;2023-12-07T01:27:16;97225.41;;;0.40;78.51
41044;BME280;51680;49.806;18.774;2023-12-07T01:30:18;97223.47;;;0.48;78.34
41044;BME280;51680;49.806;18.774;2023-12-07T01:33:20;97223.56;;;0.45;78.30
41044;BME280;51680;49.806;18.774;2023-12-07T01:36:22;97231.63;;;0.32;78.42
41044;BME280;51680;49.806;18.774;2023-12-07T01:39:26;97230.44;;;0.13;78.87
41044;BME280;51680;49.806;18.774;2023-12-07T01:42:28;97225.16;;;0.17;79.46
41044;BME280;51680;49.806;18.774;2023-12-07T01:45:30;97225.72;;;0.28;79.06
41044;BME280;51680;49.806;18.774;2023-12-07T01:48:32;97230.59;;;0.37;78.91
41044;BME280;51680;49.806;18.774;2023-12-07T01:51:35;97227.13;;;0.39;78.39
41044;BME280;51680;49.806;18.774;2023-12-07T01:54:38;97222.84;;;0.40;78.49
41044;BME280;51680;49.806;18.774;2023-12-07T01:57:41;97224.75;;;0.32;78.70
41044;BME280;51680;49.806;18.774;2023-12-07T02:00:44;97225.41;;;0.40;78.55
41044;BME280;51680;49.806;18.774;2023-12-07T02:03:47;97223.59;;;0.43;78.34
41044;BME280;51680;49.806;18.774;2023-12-07T02:06:49;97228.66;;;0.47;78.02
41044;BME280;51680;49.806;18.774;2023-12-07T02:09:53;97226.75;;;0.53;78.05
41044;BME280;51680;49.806;18.774;2023-12-07T02:12:55;97238.78;;;0.51;78.34
41044;BME280;51680;49.806;18.774;2023-12-07T02:15:58;97229.91;;;0.63;78.17
41044;BME280;51680;49.806;18.774;2023-12-07T02:19:12;97227.00;;;0.75;77.91
41044;BME280;51680;49.806;18.774;2023-12-07T02:22:25;97233.59;;;0.83;77.84
41044;BME280;51680;49.806;18.774;2023-12-07T02:25:35;97224.97;;;0.86;77.72
41044;BME280;51680;49.806;18.774;2023-12-07T02:28:39;97230.78;;;0.92;77.69
41044;BME280;51680;49.806;18.774;2023-12-07T02:31:42;97236.81;;;0.91;77.53
41044;BME280;51680;49.806;18.774;2023-12-07T02:34:44;97236.81;;;0.91;77.22
41044;BME280;51680;49.806;18.774;2023-12-07T02:37:48;97245.97;;;1.00;77.40
41044;BME280;51680;49.806;18.774;2023-12-07T02:40:51;97244.91;;;1.05;77.45
41044;BME280;51680;49.806;18.774;2023-12-07T02:43:56;97240.50;;;1.10;77.30
41044;BME280;51680;49.806;18.774;2023-12-07T02:46:58;97244.13;;;1.03;77.31
41044;BME280;51680;49.806;18.774;2023-12-07T02:50:00;97254.22;;;1.09;77.23
41044;BME280;51680;49.806;18.774;2023-12-07T02:53:03;97247.38;;;1.10;77.07
41044;BME280;51680;49.806;18.774;2023-12-07T02:56:05;97254.16;;;1.12;77.18
41044;BME280;51680;49.806;18.774;2023-12-07T02:59:09;97258.41;;;1.13;76.99
41044;BME280;51680;49.806;18.774;2023-12-07T03:02:11;97266.09;;;1.13;76.90
41044;BME280;51680;49.806;18.774;2023-12-07T03:05:13;97259.38;;;1.09;76.69
41044;BME280;51680;49.806;18.774;2023-12-07T03:08:15;97268.19;;;1.01;76.72
41044;BME280;51680;49.806;18.774;2023-12-07T03:11:17;97265.81;;;0.95;76.91
41044;BME280;51680;49.806;18.774;2023-12-07T03:14:21;97262.56;;;0.88;76.97
41044;BME280;51680;49.806;18.774;2023-12-07T03:17:23;97262.75;;;0.82;77.16
41044;BME280;51680;49.806;18.774;2023-12-07T03:20:25;97259.28;;;0.83;77.06
41044;BME280;51680;49.806;18.774;2023-12-07T03:23:27;97258.47;;;0.81;77.35
41044;BME280;51680;49.806;18.774;2023-12-07T03:26:29;97263.59;;;0.81;77.27
41044;BME280;51680;49.806;18.774;2023-12-07T03:29:32;97265.47;;;0.76;77.00
41044;BME280;51680;49.806;18.774;2023-12-07T03:32:34;97262.19;;;0.71;76.93
41044;BME280;51680;49.806;18.774;2023-12-07T03:35:36;97265.75;;;0.67;77.29
41044;BME280;51680;49.806;18.774;2023-12-07T03:38:38;97279.47;;;0.64;77.13
41044;BME280;51680;49.806;18.774;2023-12-07T03:41:59;97283.78;;;0.64;77.37
41044;BME280;51680;49.806;18.774;2023-12-07T03:45:03;97291.50;;;0.64;77.35
41044;BME280;51680;49.806;18.774;2023-12-07T03:48:05;97291.50;;;0.64;77.23
41044;BME280;51680;49.806;18.774;2023-12-07T03:51:07;97295.66;;;0.68;77.31
41044;BME280;51680;49.806;18.774;2023-12-07T03:54:09;97291.28;;;0.72;77.38
41044;BME280;51680;49.806;18.774;2023-12-07T03:57:11;97290.38;;;0.73;77.31
41044;BME280;51680;49.806;18.774;2023-12-07T04:00:15;97295.47;;;0.76;77.47
41044;BME280;51680;49.806;18.774;2023-12-07T04:03:17;97296.22;;;0.79;77.39
41044;BME280;51680;49.806;18.774;2023-12-07T04:06:19;97298.78;;;0.79;77.24
41044;BME280;51680;49.806;18.774;2023-12-07T04:09:21;97300.59;;;0.76;77.39
41044;BME280;51680;49.806;18.774;2023-12-07T04:12:23;97304.97;;;0.72;77.19
41044;BME280;51680;49.806;18.774;2023-12-07T04:15:26;97300.69;;;0.71;77.38
41044;BME280;51680;49.806;18.774;2023-12-07T04:18:28;97310.25;;;0.66;77.04
41044;BME280;51680;49.806;18.774;2023-12-07T04:21:30;97312.69;;;0.72;77.25
41044;BME280;51680;49.806;18.774;2023-12-07T04:24:32;97318.59;;;0.74;77.29
41044;BME280;51680;49.806;18.774;2023-12-07T04:27:34;97315.97;;;0.77;77.04
41044;BME280;51680;49.806;18.774;2023-12-07T04:30:38;97319.25;;;0.82;76.94
41044;BME280;51680;49.806;18.774;2023-12-07T04:33:40;97314.38;;;0.73;76.97
41044;BME280;51680;49.806;18.774;2023-12-07T04:36:42;97322.75;;;0.80;77.18
41044;BME280;51680;49.806;18.774;2023-12-07T04:39:44;97325.09;;;0.87;77.15
41044;BME280;51680;49.806;18.774;2023-12-07T04:42:46;97329.22;;;0.93;77.10
41044;BME280;51680;49.806;18.774;2023-12-07T04:45:49;97328.28;;;0.95;77.00
41044;BME280;51680;49.806;18.774;2023-12-07T04:48:51;97342.84;;;0.96;77.03
41044;BME280;51680;49.806;18.774;2023-12-07T04:51:53;97335.06;;;0.98;76.91
41044;BME280;51680;49.806;18.774;2023-12-07T04:54:55;97336.84;;;0.96;76.72
41044;BME280;51680;49.806;18.774;2023-12-07T04:57:57;97337.72;;;0.96;76.96
41044;BME280;51680;49.806;18.774;2023-12-07T05:01:01;97341.97;;;0.97;76.74
41044;BME280;51680;49.806;18.774;2023-12-07T05:04:05;97352.09;;;1.02;76.80
41044;BME280;51680;49.806;18.774;2023-12-07T05:07:25;97361.59;;;1.00;76.83
41044;BME280;51680;49.806;18.774;2023-12-07T05:10:27;97359.75;;;1.03;76.92
41044;BME280;51680;49.806;18.774;2023-12-07T05:13:29;97364.84;;;1.06;76.77
41044;BME280;51680;49.806;18.774;2023-12-07T05:16:34;97369.16;;;1.04;76.53
41044;BME280;51680;49.806;18.774;2023-12-07T05:19:36;97372.56;;;1.05;76.57
41044;BME280;51680;49.806;18.774;2023-12-07T05:22:38;97373.31;;;1.08;76.61
41044;BME280;51680;49.806;18.774;2023-12-07T05:25:40;97374.13;;;1.10;76.71
41044;BME280;51680;49.806;18.774;2023-12-07T05:28:42;97381.06;;;1.07;76.57
41044;BME280;51680;49.806;18.774;2023-12-07T05:31:48;97384.34;;;1.12;76.34
41044;BME280;51680;49.806;18.774;2023-12-07T05:34:50;97386.00;;;1.14;76.42
41044;BME280;51680;49.806;18.774;2023-12-07T05:37:52;97387.59;;;1.18;76.44
41044;BME280;51680;49.806;18.774;2023-12-07T05:40:54;97390.06;;;1.23;76.45
41044;BME280;51680;49.806;18.774;2023-12-07T05:43:56;97385.69;;;1.26;76.26
41044;BME280;51680;49.806;18.774;2023-12-07T05:46:59;97393.34;;;1.28;76.21
41044;BME280;51680;49.806;18.774;2023-12-07T05:50:02;97389.91;;;1.29;76.45
41044;BME280;51680;49.806;18.774;2023-12-07T05:53:04;97390.72;;;1.29;76.32
41044;BME280;51680;49.806;18.774;2023-12-07T05:56:07;97396.75;;;1.28;76.31
41044;BME280;51680;49.806;18.774;2023-12-07T05:59:10;97402.59;;;1.33;76.35
41044;BME280;51680;49.806;18.774;2023-12-07T06:02:13;97406.81;;;1.36;76.20
41044;BME280;51680;49.806;18.774;2023-12-07T06:05:15;97405.09;;;1.36;76.30
41044;BME280;51680;49.806;18.774;2023-12-07T06:08:35;97411.88;;;1.39;76.21
41044;BME280;51680;49.806;18.774;2023-12-07T06:11:37;97413.50;;;1.43;76.15
41044;BME280;51680;49.806;18.774;2023-12-07T06:14:41;97415.09;;;1.47;76.23
41044;BME280;51680;49.806;18.774;2023-12-07T06:17:45;97426.97;;;1.51;76.33
41044;BME280;51680;49.806;18.774;2023-12-07T06:20:47;97424.34;;;1.52;76.25
41044;BME280;51680;49.806;18.774;2023-12-07T06:23:48;97434.56;;;1.55;76.22
41044;BME280;51680;49.806;18.774;2023-12-07T06:26:50;97425.88;;;1.59;76.22
41044;BME280;51680;49.806;18.774;2023-12-07T06:29:52;97432.66;;;1.62;76.25
41044;BME280;51680;49.806;18.774;2023-12-07T06:32:56;97430.00;;;1.65;76.25
41044;BME280;51680;49.806;18.774;2023-12-07T06:35:58;97434.31;;;1.64;75.92
41044;BME280;51680;49.806;18.774;2023-12-07T06:39:00;97439.44;;;1.64;76.13
41044;BME280;51680;49.806;18.774;2023-12-07T06:42:02;97444.50;;;1.67;76.00
41044;BME280;51680;49.806;18.774;2023-12-07T06:45:05;97454.78;;;1.67;76.02
41044;BME280;51680;49.806;18.774;2023-12-07T06:48:12;97448.72;;;1.70;76.07
41044;BME280;51680;49.806;18.774;2023-12-07T06:51:33;97452.91;;;1.72;75.85
41044;BME280;51680;49.806;18.774;2023-12-07T06:54:35;97437.41;;;1.75;75.98
41044;BME280;51680;49.806;18.774;2023-12-07T06:57:37;97453.59;;;1.79;75.67
41044;BME280;51680;49.806;18.774;2023-12-07T07:00:39;97459.84;;;1.70;75.53
41044;BME280;51680;49.806;18.774;2023-12-07T07:03:43;97454.84;;;1.66;76.00
41044;BME280;51680;49.806;18.774;2023-12-07T07:06:44;97462.41;;;1.70;75.63
41044;BME280;51680;49.806;18.774;2023-12-07T07:09:47;97463.13;;;1.75;75.52
41044;BME280;51680;49.806;18.774;2023-12-07T07:12:49;97461.28;;;1.80;75.58
41044;BME280;51680;49.806;18.774;2023-12-07T07:15:51;97470.56;;;1.86;75.64
41044;BME280;51680;49.806;18.774;2023-12-07T07:18:56;97466.16;;;1.89;75.54
41044;BME280;51680;49.806;18.774;2023-12-07T07:21:58;97465.19;;;1.93;75.61
41044;BME280;51680;49.806;18.774;2023-12-07T07:25:00;97469.25;;;2.00;75.34
41044;BME280;51680;49.806;18.774;2023-12-07T07:28:03;97472.69;;;2.01;75.53
41044;BME280;51680;49.806;18.774;2023-12-07T07:31:05;97474.25;;;2.06;75.24
41044;BME280;51680;49.806;18.774;2023-12-07T07:34:08;97475.75;;;2.13;75.31
41044;BME280;51680;49.806;18.774;2023-12-07T07:37:11;97479.22;;;2.12;74.79
41044;BME280;51680;49.806;18.774;2023-12-07T07:40:13;97483.38;;;2.16;74.85
41044;BME280;51680;49.806;18.774;2023-12-07T07:43:15;97488.47;;;2.18;74.86
41044;BME280;51680;49.806;18.774;2023-12-07T07:46:17;97478.09;;;2.21;74.92
41044;BME280;51680;49.806;18.774;2023-12-07T07:49:20;97496.09;;;2.21;74.48
41044;BME280;51680;49.806;18.774;2023-12-07T07:52:22;97487.41;;;2.25;74.48
41044;BME280;51680;49.806;18.774;2023-12-07T07:55:24;97482.09;;;2.29;74.65
41044;BME280;51680;49.806;18.774;2023-12-07T07:58:26;97494.91;;;2.32;74.44
41044;BME280;51680;49.806;18.774;2023-12-07T08:01:28;97492.06;;;2.41;74.50
41044;BME280;51680;49.806;18.774;2023-12-07T08:04:51;97498.81;;;2.45;74.26
41044;BME280;51680;49.806;18.774;2023-12-07T08:07:53;97489.97;;;2.52;74.20
41044;BME280;51680;49.806;18.774;2023-12-07T08:10:55;97494.94;;;2.58;74.24
41044;BME280;51680;49.806;18.774;2023-12-07T08:13:57;97495.59;;;2.65;74.17
41044;BME280;51680;49.806;18.774;2023-12-07T08:16:59;97497.19;;;2.69;73.81
41044;BME280;51680;49.806;18.774;2023-12-07T08:20:04;97496.97;;;2.75;73.86
41044;BME280;51680;49.806;18.774;2023-12-07T08:23:07;97498.53;;;2.80;73.52
41044;BME280;51680;49.806;18.774;2023-12-07T08:26:09;97503.53;;;2.85;73.28
41044;BME280;51680;49.806;18.774;2023-12-07T08:29:30;97511.13;;;2.89;73.32
41044;BME280;51680;49.806;18.774;2023-12-07T08:32:32;97513.47;;;2.97;73.06
41044;BME280;51680;49.806;18.774;2023-12-07T08:35:36;97518.28;;;3.07;73.36
41044;BME280;51680;49.806;18.774;2023-12-07T08:38:38;97516.44;;;3.11;72.96
41044;BME280;51680;49.806;18.774;2023-12-07T08:41:40;97521.38;;;3.17;72.72
41044;BME280;51680;49.806;18.774;2023-12-07T08:44:42;97523.88;;;3.20;72.53
41044;BME280;51680;49.806;18.774;2023-12-07T08:47:44;97521.00;;;3.29;72.35
41044;BME280;51680;49.806;18.774;2023-12-07T08:50:48;97527.66;;;3.34;72.52
41044;BME280;51680;49.806;18.774;2023-12-07T08:53:50;97527.63;;;3.36;71.92
41044;BME280;51680;49.806;18.774;2023-12-07T08:56:52;97537.94;;;3.36;72.18
41044;BME280;51680;49.806;18.774;2023-12-07T08:59:54;97543.97;;;3.36;72.00
41044;BME280;51680;49.806;18.774;2023-12-07T09:02:57;97542.16;;;3.38;72.19
41044;BME280;51680;49.806;18.774;2023-12-07T09:06:00;97548.00;;;3.43;72.03
41044;BME280;51680;49.806;18.774;2023-12-07T09:09:03;97546.41;;;3.39;72.08
41044;BME280;51680;49.806;18.774;2023-12-07T09:12:06;97541.13;;;3.44;71.73
41044;BME280;51680;49.806;18.774;2023-12-07T09:15:08;97535.69;;;3.51;71.90
41044;BME280;51680;49.806;18.774;2023-12-07T09:18:11;97536.22;;;3.61;71.43
41044;BME280;51680;49.806;18.774;2023-12-07T09:21:14;97538.47;;;3.70;71.09
41044;BME280;51680;49.806;18.774;2023-12-07T09:24:16;97536.47;;;3.78;71.04
41044;BME280;51680;49.806;18.774;2023-12-07T09:27:18;97530.06;;;3.89;70.86
41044;BME280;51680;49.806;18.774;2023-12-07T09:30:39;97533.88;;;4.02;71.09
41044;BME280;51680;49.806;18.774;2023-12-07T09:33:41;97539.38;;;4.16;70.62
41044;BME280;51680;49.806;18.774;2023-12-07T09:36:45;97534.63;;;4.29;69.92
41044;BME280;51680;49.806;18.774;2023-12-07T09:39:46;97529.59;;;4.24;69.18
41044;BME280;51680;49.806;18.774;2023-12-07T09:42:49;97533.44;;;4.37;70.50
41044;BME280;51680;49.806;18.774;2023-12-07T09:45:54;97529.69;;;4.44;69.78
41044;BME280;51680;49.806;18.774;2023-12-07T09:48:56;97534.78;;;4.47;70.09
41044;BME280;51680;49.806;18.774;2023-12-07T09:52:00;97531.03;;;4.54;69.71
41044;BME280;51680;49.806;18.774;2023-12-07T09:55:03;97537.78;;;4.58;69.53
41044;BME280;51680;49.806;18.774;2023-12-07T09:58:06;97535.09;;;4.61;69.42
41044;BME280;51680;49.806;18.774;2023-12-07T10:01:08;97531.53;;;4.64;69.64
41044;BME280;51680;49.806;18.774;2023-12-07T10:04:19;97527.81;;;4.71;68.78
41044;BME280;51680;49.806;18.774;2023-12-07T10:07:32;97526.84;;;4.73;68.45
41044;BME280;51680;49.806;18.774;2023-12-07T10:10:34;97529.31;;;4.76;68.79
41044;BME280;51680;49.806;18.774;2023-12-07T10:13:37;97525.78;;;4.79;68.39
41044;BME280;51680;49.806;18.774;2023-12-07T10:16:51;97526.97;;;4.70;66.98
41044;BME280;51680;49.806;18.774;2023-12-07T10:20:06;97525.59;;;4.83;67.81
41044;BME280;51680;49.806;18.774;2023-12-07T10:23:11;97530.41;;;4.92;68.61
41044;BME280;51680;49.806;18.774;2023-12-07T10:26:16;97529.22;;;5.01;68.50
41044;BME280;51680;49.806;18.774;2023-12-07T10:29:20;97523.94;;;5.02;67.82
41044;BME280;51680;49.806;18.774;2023-12-07T10:32:23;97527.19;;;5.07;67.65
41044;BME280;51680;49.806;18.774;2023-12-07T10:35:25;97525.16;;;5.15;67.56
41044;BME280;51680;49.806;18.774;2023-12-07T10:38:30;97521.81;;;5.13;65.62
41044;BME280;51680;49.806;18.774;2023-12-07T10:41:34;97518.03;;;5.20;67.66
41044;BME280;51680;49.806;18.774;2023-12-07T10:44:36;97522.13;;;5.26;67.30
41044;BME280;51680;49.806;18.774;2023-12-07T10:47:43;97515.84;;;5.31;67.24
41044;BME280;51680;49.806;18.774;2023-12-07T10:50:46;97512.22;;;5.35;67.57
41044;BME280;51680;49.806;18.774;2023-12-07T10:53:53;97506.94;;;5.38;66.60
41044;BME280;51680;49.806;18.774;2023-12-07T10:56:57;97512.38;;;5.32;66.77
41044;BME280;51680;49.806;18.774;2023-12-07T11:00:03;97526.03;;;5.36;67.05
41044;BME280;51680;49.806;18.774;2023-12-07T11:03:06;97516.44;;;5.38;66.75
41044;BME280;51680;49.806;18.774;2023-12-07T11:06:09;97524.28;;;5.36;67.00
41044;BME280;51680;49.806;18.774;2023-12-07T11:09:17;97513.53;;;5.45;66.65
41044;BME280;51680;49.806;18.774;2023-12-07T11:12:32;97511.59;;;5.50;65.36
41044;BME280;51680;49.806;18.774;2023-12-07T11:15:37;97514.13;;;5.52;66.84
41044;BME280;51680;49.806;18.774;2023-12-07T11:18:39;97515.94;;;5.50;66.56
41044;BME280;51680;49.806;18.774;2023-12-07T11:21:40;97517.19;;;5.61;66.91
41044;BME280;51680;49.806;18.774;2023-12-07T11:24:57;97518.91;;;5.61;65.10
41044;BME280;51680;49.806;18.774;2023-12-07T11:28:02;97514.81;;;5.55;65.63
41044;BME280;51680;49.806;18.774;2023-12-07T11:31:06;97513.16;;;5.54;65.81
41044;BME280;51680;49.806;18.774;2023-12-07T11:34:08;97508.75;;;5.36;63.74
41044;BME280;51680;49.806;18.774;2023-12-07T11:37:15;97512.19;;;5.37;66.51
41044;BME280;51680;49.806;18.774;2023-12-07T11:40:19;97521.50;;;5.41;66.38
41044;BME280;51680;49.806;18.774;2023-12-07T11:43:36;97513.78;;;5.39;65.47
41044;BME280;51680;49.806;18.774;2023-12-07T11:46:38;97519.56;;;5.46;67.13
41044;BME280;51680;49.806;18.774;2023-12-07T11:49:40;97518.59;;;5.48;66.81
41044;BME280;51680;49.806;18.774;2023-12-07T11:52:42;97518.59;;;5.48;66.36
41044;BME280;51680;49.806;18.774;2023-12-07T11:55:48;97517.03;;;5.44;66.44
41044;BME280;51680;49.806;18.774;2023-12-07T11:58:50;97518.31;;;5.34;66.42
41044;BME280;51680;49.806;18.774;2023-12-07T12:01:53;97518.59;;;5.28;66.94
41044;BME280;51680;49.806;18.774;2023-12-07T12:05:13;97519.50;;;5.27;66.98
41044;BME280;51680;49.806;18.774;2023-12-07T12:08:16;97517.97;;;5.22;66.76
41044;BME280;51680;49.806;18.774;2023-12-07T12:11:19;97521.28;;;5.25;67.30
41044;BME280;51680;49.806;18.774;2023-12-07T12:14:21;97519.72;;;5.21;67.19
41044;BME280;51680;49.806;18.774;2023-12-07T12:17:23;97511.97;;;5.21;67.34
41044;BME280;51680;49.806;18.774;2023-12-07T12:20:26;97512.16;;;5.17;66.95
41044;BME280;51680;49.806;18.774;2023-12-07T12:23:28;97511.56;;;5.10;67.21
41044;BME280;51680;49.806;18.774;2023-12-07T12:26:33;97516.84;;;5.07;66.99
41044;BME280;51680;49.806;18.774;2023-12-07T12:29:36;97515.06;;;5.09;66.78
41044;BME280;51680;49.806;18.774;2023-12-07T12:32:42;97518.56;;;5.08;67.02
41044;BME280;51680;49.806;18.774;2023-12-07T12:35:44;97525.41;;;5.09;66.91
41044;BME280;51680;49.806;18.774;2023-12-07T12:38:46;97521.13;;;5.08;67.35
41044;BME280;51680;49.806;18.774;2023-12-07T12:41:55;97531.59;;;5.05;66.59
41044;BME280;51680;49.806;18.774;2023-12-07T12:44:57;97528.31;;;5.02;67.20
41044;BME280;51680;49.806;18.774;2023-12-07T12:47:59;97522.47;;;4.97;67.51
41044;BME280;51680;49.806;18.774;2023-12-07T12:51:07;97528.81;;;4.88;67.07
41044;BME280;51680;49.806;18.774;2023-12-07T12:54:09;97529.63;;;4.69;67.27
41044;BME280;51680;49.806;18.774;2023-12-07T12:57:14;97527.69;;;4.52;67.78
41044;BME280;51680;49.806;18.774;2023-12-07T13:00:16;97536.53;;;4.45;68.11
41044;BME280;51680;49.806;18.774;2023-12-07T13:03:18;97535.63;;;4.48;68.12
41044;BME280;51680;49.806;18.774;2023-12-07T13:06:20;97533.09;;;4.46;68.20
41044;BME280;51680;49.806;18.774;2023-12-07T13:09:22;97534.03;;;4.44;68.21
41044;BME280;51680;49.806;18.774;2023-12-07T13:12:26;97528.78;;;4.45;68.48
41044;BME280;51680;49.806;18.774;2023-12-07T13:15:28;97537.25;;;4.50;68.24
41044;BME280;51680;49.806;18.774;2023-12-07T13:18:30;97535.53;;;4.49;68.17
41044;BME280;51680;49.806;18.774;2023-12-07T13:21:32;97539.94;;;4.47;68.13
41044;BME280;51680;49.806;18.774;2023-12-07T13:24:34;97540.00;;;4.46;68.56
41044;BME280;51680;49.806;18.774;2023-12-07T13:27:38;97535.78;;;4.43;68.45
41044;BME280;51680;49.806;18.774;2023-12-07T13:30:40;97542.69;;;4.43;68.80
41044;BME280;51680;49.806;18.774;2023-12-07T13:33:42;97543.88;;;4.34;68.81
41044;BME280;51680;49.806;18.774;2023-12-07T13:37:03;97552.56;;;4.32;69.12
41044;BME280;51680;49.806;18.774;2023-12-07T13:40:06;97551.75;;;4.31;69.12
41044;BME280;51680;49.806;18.774;2023-12-07T13:43:12;97561.28;;;4.29;69.30
41044;BME280;51680;49.806;18.774;2023-12-07T13:46:14;97558.94;;;4.23;69.47
41044;BME280;51680;49.806;18.774;2023-12-07T13:49:35;97563.25;;;4.23;69.25
41044;BME280;51680;49.806;18.774;2023-12-07T13:52:38;97564.94;;;4.24;69.49
41044;BME280;51680;49.806;18.774;2023-12-07T13:55:40;97571.13;;;4.20;69.64
41044;BME280;51680;49.806;18.774;2023-12-07T13:58:44;97568.63;;;4.17;69.41
41044;BME280;51680;49.806;18.774;2023-12-07T14:01:46;97568.91;;;4.09;70.07
41044;BME280;51680;49.806;18.774;2023-12-07T14:04:48;97562.91;;;4.09;69.92
41044;BME280;51680;49.806;18.774;2023-12-07T14:07:51;97566.59;;;4.02;70.10
41044;BME280;51680;49.806;18.774;2023-12-07T14:10:53;97570.81;;;4.04;70.20
41044;BME280;51680;49.806;18.774;2023-12-07T14:13:56;97583.69;;;4.06;70.05
41044;BME280;51680;49.806;18.774;2023-12-07T14:16:58;97581.25;;;4.01;70.01
41044;BME280;51680;49.806;18.774;2023-12-07T14:20:01;97589.81;;;4.03;70.05
41044;BME280;51680;49.806;18.774;2023-12-07T14:23:04;97588.31;;;3.96;70.24
41044;BME280;51680;49.806;18.774;2023-12-07T14:26:06;97591.00;;;3.93;70.53
41044;BME280;51680;49.806;18.774;2023-12-07T14:29:09;97593.69;;;3.90;70.34
41044;BME280;51680;49.806;18.774;2023-12-07T14:32:16;97594.63;;;3.88;70.78
41044;BME280;51680;49.806;18.774;2023-12-07T14:35:19;97596.63;;;3.80;70.88
41044;BME280;51680;49.806;18.774;2023-12-07T14:38:22;97606.22;;;3.76;71.08
41044;BME280;51680;49.806;18.774;2023-12-07T14:41:24;97609.72;;;3.75;70.84
41044;BME280;51680;49.806;18.774;2023-12-07T14:44:27;97610.50;;;3.77;70.78
41044;BME280;51680;49.806;18.774;2023-12-07T14:47:29;97615.78;;;3.74;71.34
41044;BME280;51680;49.806;18.774;2023-12-07T14:50:31;97616.75;;;3.70;70.97
41044;BME280;51680;49.806;18.774;2023-12-07T14:53:33;97617.16;;;3.58;71.67
41044;BME280;51680;49.806;18.774;2023-12-07T14:56:35;97611.94;;;3.60;71.34
41044;BME280;51680;49.806;18.774;2023-12-07T14:59:39;97610.41;;;3.54;71.86
41044;BME280;51680;49.806;18.774;2023-12-07T15:02:41;97610.34;;;3.56;71.53
41044;BME280;51680;49.806;18.774;2023-12-07T15:05:43;97611.16;;;3.58;71.39
41044;BME280;51680;49.806;18.774;2023-12-07T15:08:45;97618.97;;;3.56;71.64
41044;BME280;51680;49.806;18.774;2023-12-07T15:11:47;97619.84;;;3.55;71.59
41044;BME280;51680;49.806;18.774;2023-12-07T15:14:51;97625.78;;;3.57;71.38
41044;BME280;51680;49.806;18.774;2023-12-07T15:17:53;97613.88;;;3.53;71.75
41044;BME280;51680;49.806;18.774;2023-12-07T15:20:55;97612.19;;;3.52;71.61
41044;BME280;51680;49.806;18.774;2023-12-07T15:23:58;97616.47;;;3.53;71.92
41044;BME280;51680;49.806;18.774;2023-12-07T15:27:00;97615.72;;;3.50;71.72
41044;BME280;51680;49.806;18.774;2023-12-07T15:30:05;97615.81;;;3.47;71.79
41044;BME280;51680;49.806;18.774;2023-12-07T15:33:26;97623.09;;;3.34;72.18
41044;BME280;51680;49.806;18.774;2023-12-07T15:36:28;97622.16;;;3.37;72.22
41044;BME280;51680;49.806;18.774;2023-12-07T15:39:30;97629.88;;;3.38;72.64
41044;BME280;51680;49.806;18.774;2023-12-07T15:42:33;97626.09;;;3.22;72.76
41044;BME280;51680;49.806;18.774;2023-12-07T15:45:36;97625.16;;;3.25;72.62
41044;BME280;51680;49.806;18.774;2023-12-07T15:48:39;97630.06;;;3.32;72.65
41044;BME280;51680;49.806;18.774;2023-12-07T15:51:41;97633.44;;;3.34;72.86
41044;BME280;51680;49.806;18.774;2023-12-07T15:54:43;97623.91;;;3.36;72.54
41044;BME280;51680;49.806;18.774;2023-12-07T15:57:45;97633.44;;;3.34;72.33
41044;BME280;51680;49.806;18.774;2023-12-07T16:00:49;97640.38;;;3.32;72.44
41044;BME280;51680;49.806;18.774;2023-12-07T16:03:51;97635.22;;;3.32;72.67
41044;BME280;51680;49.806;18.774;2023-12-07T16:06:53;97636.88;;;3.35;72.62
41044;BME280;51680;49.806;18.774;2023-12-07T16:09:55;97632.69;;;3.31;72.85
41044;BME280;51680;49.806;18.774;2023-12-07T16:12:58;97646.69;;;3.24;73.02